LiveATC.Net - Listen to live air traffic control over the Internet!


ICAO: KLOM  IATA: LOM   Airport: Wings Field Airport
City: Philadelphia   State/Province: Pennsylvania
Country: United States   Continent: North America
KLOM METAR Weather: KLOM 202115Z AUTO 03004KT 10SM CLR 27/17 A2991 RMK AO1
KLOM Flight Activity (FlightAware)
KLOM Airport Info   (AirNav) (iFlightPlanner)
KLOM VFR Sectional Chart   (iFlightPlanner) 
KLOM IFR Low Chart   (iFlightPlanner) 
KLOM CTAF
Feed Status: UP   Listeners: 0
Listen right in your browser - requires Flash (in browser, requires Flash)
Click here to listen with your own player (launches your MP3 player)
KLOM CTAF Audio Archives
FacilityFrequency
Wings CTAF123.000


NOTICE

Unauthorized use prohibited. See LiveATC.net Terms of Service


Find LiveATC Audio Streams


Airport/ARTCC Code

Frequency Search
(e.g., 124.400, 128.75)
Site-wide search
 


Browse LiveATC Feeds
LiveATC Coverage Map
Top 50 LiveATC Feeds
Bad Weather Areas

LiveATC FAQ
Offer a LiveATC Feed
Contact LiveATC.net
Press Inquiries

LiveATC on iPhone
LiveATC on Android

Windows Phone
Windows 8/10

LiveATC Mobile
(Mobile browser)

ATC Audio Archives
Interesting Recordings

LiveATC Forums


Home Page
About LiveATC.net
Make a Donation
LiveATC Store

Terms of Use
Privacy Policy

Canadian Air Freqs

AIRMETs/SIGMETs

FAA Airport Status
Nat'l Airspace Status
Arrival Demand Charts


Server Software By:
Icecast.org
Liquidsoap